Time;durP1;ratioP1;P1;durP2;ratioP2;P2;SDS_P1;SDS_P2;PMS_P1;PMS_P2;Temp;Humidity;BMP_temperature;BMP_pressure;BME280_temperature;BME280_humidity;BME280_pressure;Samples;Min_cycle;Max_cycle;Signal;HPM_P1;HPM_P2
2023/03/02 00:01:54;;;;;;;15.37;9.03;;;0.50;99.90;;;;;;5096239;28;20176;-83
2023/03/02 00:04:36;;;;;;;18.53;9.73;;;0.50;99.90;;;;;;5078184;28;20178;-83
2023/03/02 00:07:06;;;;;;;14.70;9.00;;;0.50;99.90;;;;;;5078027;28;20207;-83
2023/03/02 00:09:32;;;;;;;15.07;9.37;;;0.40;99.90;;;;;;5096104;28;20187;-83
2023/03/02 00:11:59;;;;;;;13.53;7.97;;;0.20;99.90;;;;;;5078014;28;20196;-83
2023/03/02 00:14:24;;;;;;;12.57;8.00;;;0.10;99.90;;;;;;5078064;28;20255;-83
2023/03/02 00:16:50;;;;;;;15.50;8.37;;;0.10;99.90;;;;;;5077556;28;20337;-83
2023/03/02 00:19:16;;;;;;;15.27;8.77;;;0.00;99.90;;;;;;5077805;28;20188;-82
2023/03/02 00:21:41;;;;;;;14.00;7.80;;;0.00;99.90;;;;;;5078248;28;20175;-83
2023/03/02 00:24:07;;;;;;;15.23;8.73;;;-0.10;99.90;;;;;;5077933;28;20187;-84
2023/03/02 00:26:34;;;;;;;14.83;8.03;;;-0.20;99.90;;;;;;5096112;28;20192;-83
2023/03/02 00:29:00;;;;;;;14.40;7.87;;;-0.20;99.90;;;;;;5095994;28;20183;-83
2023/03/02 00:31:26;;;;;;;11.90;7.80;;;-0.10;99.90;;;;;;5095908;28;20203;-83
2023/03/02 00:33:55;;;;;;;15.03;8.27;;;-0.20;99.90;;;;;;5077759;28;20195;-83
2023/03/02 00:36:22;;;;;;;12.30;7.57;;;-0.10;99.90;;;;;;5077886;28;20172;-83
2023/03/02 00:38:48;;;;;;;12.83;8.13;;;-0.20;99.90;;;;;;5077664;28;20179;-83
2023/03/02 00:41:15;;;;;;;14.23;7.60;;;-0.20;99.90;;;;;;5077600;28;20172;-83
2023/03/02 00:43:41;;;;;;;13.10;8.10;;;-0.20;99.90;;;;;;5077642;28;20183;-82
2023/03/02 00:46:11;;;;;;;11.50;7.63;;;-0.20;99.90;;;;;;5077582;28;20165;-83
2023/03/02 00:48:37;;;;;;;12.93;7.87;;;-0.20;99.90;;;;;;5095196;28;20561;-83
2023/03/02 00:51:03;;;;;;;13.20;7.53;;;-0.20;99.90;;;;;;5077068;28;20175;-83
2023/03/02 00:53:29;;;;;;;13.57;7.70;;;-0.20;99.90;;;;;;5077458;28;20738;-82
2023/03/02 00:55:55;;;;;;;12.47;7.63;;;-0.30;99.90;;;;;;5095712;28;20198;-83
2023/03/02 00:58:21;;;;;;;14.00;7.97;;;-0.30;99.90;;;;;;5077115;28;20190;-83
2023/03/02 01:00:47;;;;;;;13.47;8.07;;;-0.40;99.90;;;;;;5077046;28;20634;-83
2023/03/02 01:03:13;;;;;;;11.97;7.60;;;-0.60;99.90;;;;;;5076905;28;20183;-83
2023/03/02 01:05:38;;;;;;;12.10;7.10;;;-0.60;99.90;;;;;;5094977;28;20171;-83
2023/03/02 01:08:04;;;;;;;11.80;8.07;;;-0.60;99.90;;;;;;5077466;28;20701;-83
2023/03/02 01:10:31;;;;;;;10.77;6.50;;;-0.50;99.90;;;;;;5076858;28;20195;-83
2023/03/02 01:12:57;;;;;;;12.67;7.50;;;-0.70;99.90;;;;;;5077016;28;20204;-83
2023/03/02 01:15:23;;;;;;;14.33;7.77;;;-0.80;99.90;;;;;;5077051;28;20171;-83
2023/03/02 01:17:48;;;;;;;11.83;7.13;;;-0.80;99.90;;;;;;5095062;28;20191;-83
2023/03/02 01:20:15;;;;;;;12.83;7.83;;;-0.70;99.90;;;;;;5076882;28;20206;-82
2023/03/02 01:22:42;;;;;;;11.80;7.23;;;-0.60;99.90;;;;;;5076986;28;20186;-83
2023/03/02 01:25:08;;;;;;;10.73;7.23;;;-0.60;99.90;;;;;;5094639;28;20183;-83
2023/03/02 01:27:34;;;;;;;13.80;8.10;;;-0.60;99.90;;;;;;5076511;28;20210;-83
2023/03/02 01:30:00;;;;;;;12.23;7.63;;;-0.60;99.90;;;;;;5076564;28;20546;-82
2023/03/02 01:32:25;;;;;;;11.93;7.63;;;-0.70;99.90;;;;;;5076690;28;20199;-83
2023/03/02 01:34:51;;;;;;;14.03;7.87;;;-0.70;99.90;;;;;;5076766;28;20183;-83
2023/03/02 01:37:17;;;;;;;14.93;8.00;;;-0.70;99.90;;;;;;5094631;28;20196;-83
2023/03/02 01:39:42;;;;;;;12.83;7.63;;;-0.60;99.90;;;;;;5094473;28;20171;-83
2023/03/02 01:42:08;;;;;;;14.10;8.53;;;-0.50;99.90;;;;;;5094774;28;20559;-83
2023/03/02 01:44:40;;;;;;;11.47;7.80;;;-0.50;99.90;;;;;;5094977;28;20179;-83
2023/03/02 01:47:27;;;;;;;12.57;7.77;;;-0.40;99.90;;;;;;5075615;28;20220;-83
2023/03/02 01:50:10;;;;;;;13.00;8.37;;;-0.50;99.90;;;;;;5075713;28;20550;-83
2023/03/02 01:52:38;;;;;;;14.10;8.40;;;-0.60;99.90;;;;;;5075955;28;20680;-83
2023/03/02 01:55:07;;;;;;;16.03;8.53;;;-0.60;99.90;;;;;;5075807;28;20542;-83
2023/03/02 01:57:42;;;;;;;14.53;7.97;;;-0.50;99.90;;;;;;5075813;28;20773;-82
2023/03/02 02:00:11;;;;;;;13.83;8.17;;;-0.50;99.90;;;;;;5094087;28;20167;-83
2023/03/02 02:02:40;;;;;;;13.13;8.80;;;-0.40;99.90;;;;;;5094077;28;20178;-82
2023/03/02 02:05:08;;;;;;;14.30;8.40;;;-0.30;99.90;;;;;;5093663;28;20270;-83
2023/03/02 02:07:35;;;;;;;12.40;7.73;;;-0.30;99.90;;;;;;5093820;28;20198;-83
2023/03/02 02:10:02;;;;;;;13.27;8.20;;;-0.30;99.90;;;;;;5075931;28;20700;-82
2023/03/02 02:12:28;;;;;;;12.70;8.00;;;-0.30;99.90;;;;;;5075296;28;20207;-83
2023/03/02 02:14:59;;;;;;;13.77;8.50;;;-0.30;99.90;;;;;;5075824;28;20298;-83
2023/03/02 02:17:27;;;;;;;13.63;7.70;;;-0.30;99.90;;;;;;5093780;28;20207;-83
2023/03/02 02:20:07;;;;;;;14.73;9.20;;;-0.20;99.90;;;;;;5075715;28;20182;-83
2023/03/02 02:22:41;;;;;;;13.60;8.43;;;-0.20;99.90;;;;;;5075149;28;20174;-83
2023/03/02 02:25:46;;;;;;;12.77;7.90;;;-0.20;99.90;;;;;;5093946;28;20163;-83
2023/03/02 02:28:19;;;;;;;14.37;8.13;;;-0.30;99.90;;;;;;5042360;28;20685;-82
2023/03/02 02:30:49;;;;;;;14.00;8.53;;;-0.30;99.90;;;;;;5093552;28;20622;-83
2023/03/02 02:33:19;;;;;;;13.33;8.10;;;-0.30;99.90;;;;;;5093288;28;20305;-83
2023/03/02 02:35:46;;;;;;;13.20;7.57;;;-0.40;99.90;;;;;;5093687;28;20197;-84
2023/03/02 02:38:14;;;;;;;13.50;8.17;;;-0.40;99.90;;;;;;5093805;28;20199;-82
2023/03/02 02:40:59;;;;;;;14.80;8.70;;;-0.50;99.90;;;;;;5075457;28;20543;-82
2023/03/02 02:43:28;;;;;;;13.37;8.20;;;-0.60;99.90;;;;;;5093607;28;20587;-82
2023/03/02 02:45:57;;;;;;;15.93;8.30;;;-0.50;99.90;;;;;;5093706;28;20606;-82
2023/03/02 02:48:25;;;;;;;16.70;8.70;;;-0.50;99.90;;;;;;5068645;22;20218;-82
2023/03/02 02:50:58;;;;;;;13.13;8.23;;;-0.50;99.90;;;;;;5051582;28;20219;-84
2023/03/02 02:53:39;;;;;;;14.57;8.17;;;-0.50;99.90;;;;;;5052306;28;20292;-82
2023/03/02 02:56:06;;;;;;;12.70;7.63;;;-0.50;99.90;;;;;;5034747;28;20270;-82
2023/03/02 02:58:51;;;;;;;15.23;8.37;;;-0.50;99.90;;;;;;5052259;28;20191;-82
2023/03/02 03:01:19;;;;;;;14.30;8.17;;;-0.40;99.90;;;;;;5035121;28;20637;-82
2023/03/02 03:03:55;;;;;;;14.97;8.47;;;-0.40;99.90;;;;;;5056648;28;20174;-82
2023/03/02 03:06:36;;;;;;;13.47;7.70;;;-0.50;99.90;;;;;;5038090;28;20276;-82
2023/03/02 03:09:03;;;;;;;15.90;8.47;;;-0.50;99.90;;;;;;5056619;28;20170;-82
2023/03/02 03:11:32;;;;;;;15.20;8.43;;;-0.60;99.90;;;;;;5056342;28;20174;-82
2023/03/02 03:14:01;;;;;;;13.87;8.50;;;-0.60;99.90;;;;;;5056417;28;20266;-82
2023/03/02 03:16:28;;;;;;;14.50;8.30;;;-0.70;99.90;;;;;;5038258;28;20170;-82
2023/03/02 03:18:58;;;;;;;14.43;8.03;;;-0.70;99.90;;;;;;5038765;28;20283;-83
2023/03/02 03:21:23;;;;;;;13.87;7.80;;;-0.70;99.90;;;;;;5038683;28;20173;-82
2023/03/02 03:23:49;;;;;;;12.70;7.20;;;-0.70;99.90;;;;;;5056989;28;20179;-82
2023/03/02 03:26:15;;;;;;;14.33;8.53;;;-0.60;99.90;;;;;;5056420;28;20199;-83
2023/03/02 03:28:41;;;;;;;13.70;8.40;;;-0.70;99.90;;;;;;5038022;28;20284;-82
2023/03/02 03:31:06;;;;;;;14.53;7.90;;;-0.70;99.90;;;;;;5038842;28;20205;-82
2023/03/02 03:33:32;;;;;;;15.63;7.80;;;-0.70;99.90;;;;;;5038590;28;20202;-82
2023/03/02 03:35:59;;;;;;;14.83;8.17;;;-0.70;99.90;;;;;;5057601;28;20171;-82
2023/03/02 03:38:25;;;;;;;12.77;7.70;;;-0.70;99.90;;;;;;5056974;28;20739;-81
2023/03/02 03:40:51;;;;;;;18.40;8.27;;;-0.70;99.90;;;;;;5056969;28;20194;-82
2023/03/02 03:43:16;;;;;;;16.03;8.43;;;-0.70;99.90;;;;;;5039158;28;20186;-83
2023/03/02 03:45:42;;;;;;;12.30;7.83;;;-0.70;99.90;;;;;;5039258;28;20247;-82
2023/03/02 03:48:07;;;;;;;12.87;7.73;;;-0.70;99.90;;;;;;5038883;28;20225;-83
2023/03/02 03:50:33;;;;;;;12.17;7.80;;;-0.70;99.90;;;;;;5057593;28;20625;-82
2023/03/02 03:52:58;;;;;;;13.50;8.10;;;-0.70;99.90;;;;;;5039870;28;20201;-82
2023/03/02 03:55:27;;;;;;;13.87;8.23;;;-0.60;99.90;;;;;;5057139;28;20183;-82
2023/03/02 03:57:53;;;;;;;14.10;7.97;;;-0.70;99.90;;;;;;5058468;28;20183;-82
2023/03/02 04:00:19;;;;;;;13.80;8.07;;;-0.60;99.90;;;;;;5039543;28;20639;-82
2023/03/02 04:02:45;;;;;;;13.53;8.07;;;-0.60;99.90;;;;;;5040288;28;20178;-83
2023/03/02 04:05:11;;;;;;;12.57;8.03;;;-0.60;99.90;;;;;;5058899;28;20226;-82
2023/03/02 04:07:38;;;;;;;13.20;8.40;;;-0.60;99.90;;;;;;5041102;28;20235;-83
2023/03/02 04:10:06;;;;;;;13.87;8.30;;;-0.60;99.90;;;;;;5040756;28;20187;-82
2023/03/02 04:12:33;;;;;;;14.40;8.17;;;-0.60;99.90;;;;;;5039818;28;20251;-82
2023/03/02 04:14:59;;;;;;;12.83;7.90;;;-0.70;99.90;;;;;;5058210;28;20675;-82
2023/03/02 04:17:25;;;;;;;11.17;7.23;;;-0.60;99.90;;;;;;5059329;28;20202;-84
2023/03/02 04:19:50;;;;;;;14.03;7.63;;;-0.70;99.90;;;;;;5041640;28;20176;-82
2023/03/02 04:22:16;;;;;;;13.93;8.00;;;-0.70;99.90;;;;;;5060625;28;20176;-82
2023/03/02 04:24:42;;;;;;;15.13;8.13;;;-0.70;99.90;;;;;;5041758;28;20269;-82
2023/03/02 04:27:08;;;;;;;15.30;8.07;;;-0.70;99.90;;;;;;5060482;28;20199;-82
2023/03/02 04:29:35;;;;;;;13.50;7.73;;;-0.70;99.90;;;;;;5042098;28;20232;-82
2023/03/02 04:32:01;;;;;;;14.00;8.20;;;-0.70;99.90;;;;;;5042344;28;20200;-82
2023/03/02 04:34:26;;;;;;;14.70;8.40;;;-0.70;99.90;;;;;;5042385;28;20174;-82
2023/03/02 04:36:52;;;;;;;13.50;8.40;;;-0.70;99.90;;;;;;5061311;28;20562;-83
2023/03/02 04:39:18;;;;;;;13.90;8.20;;;-0.80;99.90;;;;;;5060968;28;20245;-83
2023/03/02 04:41:45;;;;;;;13.83;7.90;;;-0.80;99.90;;;;;;5043103;28;20331;-82
2023/03/02 04:44:12;;;;;;;13.40;7.77;;;-0.70;99.90;;;;;;5061623;28;20171;-82
2023/03/02 04:46:38;;;;;;;14.10;8.13;;;-0.70;99.90;;;;;;5043949;28;20696;-82
2023/03/02 04:49:04;;;;;;;15.17;8.10;;;-0.70;99.90;;;;;;5043907;28;20178;-82
2023/03/02 04:51:33;;;;;;;14.70;8.17;;;-0.80;99.90;;;;;;5044327;28;20174;-82
2023/03/02 04:54:02;;;;;;;12.93;8.10;;;-0.80;99.90;;;;;;5044629;28;20189;-82
2023/03/02 04:56:28;;;;;;;12.87;8.30;;;-0.80;99.90;;;;;;5063561;28;20198;-82
2023/03/02 04:58:54;;;;;;;12.87;7.53;;;-0.80;99.90;;;;;;5063325;28;20194;-83
2023/03/02 05:01:20;;;;;;;14.10;8.10;;;-0.80;99.90;;;;;;5064475;28;20177;-83
2023/03/02 05:03:45;;;;;;;14.07;8.00;;;-0.80;99.90;;;;;;5046060;28;20178;-82
2023/03/02 05:06:12;;;;;;;14.97;7.50;;;-0.80;99.90;;;;;;5064507;28;20196;-82
2023/03/02 05:08:38;;;;;;;15.67;8.10;;;-0.90;99.90;;;;;;5064588;28;20190;-83
2023/03/02 05:11:05;;;;;;;13.03;8.17;;;-0.80;99.90;;;;;;5047071;28;20174;-83
2023/03/02 05:13:31;;;;;;;13.70;8.17;;;-0.80;99.90;;;;;;5065960;28;20588;-81
2023/03/02 05:15:57;;;;;;;13.50;8.13;;;-0.80;99.90;;;;;;5048780;28;20189;-83
2023/03/02 05:18:23;;;;;;;14.30;8.23;;;-0.80;99.90;;;;;;5048592;28;20187;-83
2023/03/02 05:20:50;;;;;;;13.50;8.23;;;-0.80;99.90;;;;;;5048786;28;20191;-83
2023/03/02 05:23:22;;;;;;;14.30;8.20;;;-0.80;99.90;;;;;;5067456;28;20174;-83
2023/03/02 05:25:54;;;;;;;15.10;8.37;;;-0.80;99.90;;;;;;5066762;28;20195;-84
2023/03/02 05:28:21;;;;;;;13.53;8.57;;;-0.80;99.90;;;;;;5068161;28;20222;-83
2023/03/02 05:30:47;;;;;;;15.03;7.93;;;-0.80;99.90;;;;;;5051493;28;20184;-84
2023/03/02 05:33:14;;;;;;;13.57;7.40;;;-0.80;99.90;;;;;;5060827;28;20258;-82
2023/03/02 05:35:39;;;;;;;15.00;8.30;;;-0.80;99.90;;;;;;5053491;28;20171;-82
2023/03/02 05:38:05;;;;;;;12.80;8.17;;;-0.80;99.90;;;;;;5053786;28;20554;-82
2023/03/02 05:40:31;;;;;;;13.80;8.07;;;-0.90;99.90;;;;;;5053570;28;20179;-82
2023/03/02 05:42:57;;;;;;;18.07;8.27;;;-0.80;99.90;;;;;;5035474;28;20323;-82
2023/03/02 05:45:31;;;;;;;12.67;7.83;;;-0.80;99.90;;;;;;5036036;28;20181;-83
2023/03/02 05:47:56;;;;;;;13.30;7.33;;;-0.90;99.90;;;;;;5053412;28;20229;-82
2023/03/02 05:50:22;;;;;;;15.17;8.20;;;-0.80;99.90;;;;;;5053963;28;20177;-82
2023/03/02 05:52:48;;;;;;;12.47;7.53;;;-0.80;99.90;;;;;;5053406;28;20292;-82
2023/03/02 05:55:15;;;;;;;10.83;7.57;;;-0.80;99.90;;;;;;5036214;28;20281;-82
2023/03/02 05:57:41;;;;;;;12.80;7.97;;;-0.80;99.90;;;;;;5053132;28;20200;-83
2023/03/02 06:00:09;;;;;;;13.30;7.93;;;-0.70;99.90;;;;;;5053203;28;20178;-84
2023/03/02 06:02:36;;;;;;;14.17;7.33;;;-0.80;99.90;;;;;;5053677;28;20188;-83
2023/03/02 06:05:02;;;;;;;12.80;7.97;;;-0.90;99.90;;;;;;5035610;28;20187;-83
2023/03/02 06:07:28;;;;;;;13.90;8.30;;;-0.90;99.90;;;;;;5053906;28;20202;-83
2023/03/02 06:09:54;;;;;;;13.93;7.87;;;-1.00;99.90;;;;;;5053508;28;20179;-83
2023/03/02 06:12:19;;;;;;;11.13;7.17;;;-1.10;99.90;;;;;;5035393;28;20260;-81
2023/03/02 06:14:45;;;;;;;13.73;7.70;;;-0.90;99.90;;;;;;5052694;28;20225;-77
2023/03/02 06:17:11;;;;;;;12.23;7.67;;;-0.70;99.90;;;;;;5035092;28;20199;-78
2023/03/02 06:19:37;;;;;;;13.60;7.87;;;-0.60;99.90;;;;;;5034751;28;20176;-77
2023/03/02 06:22:02;;;;;;;10.87;7.13;;;-0.60;99.90;;;;;;5053035;28;20247;-81
2023/03/02 06:24:28;;;;;;;12.57;7.77;;;-0.50;99.90;;;;;;5053453;28;20186;-82
2023/03/02 06:26:54;;;;;;;15.57;7.97;;;-0.50;99.90;;;;;;5053372;28;20662;-80
2023/03/02 06:29:20;;;;;;;12.80;8.07;;;-0.50;99.90;;;;;;5054352;28;20175;-81
2023/03/02 06:31:46;;;;;;;14.00;7.77;;;-0.60;99.90;;;;;;5052644;28;20191;-85
2023/03/02 06:34:12;;;;;;;11.40;7.70;;;-0.60;99.90;;;;;;5037927;28;20175;-84
2023/03/02 06:36:37;;;;;;;10.40;7.40;;;-0.60;99.90;;;;;;5057634;28;20171;-83
2023/03/02 06:39:04;;;;;;;13.07;7.83;;;-0.60;99.90;;;;;;5044300;28;20201;-83
2023/03/02 06:41:32;;;;;;;14.60;8.00;;;-0.60;99.90;;;;;;5045303;28;20256;-82
2023/03/02 06:44:00;;;;;;;11.97;7.57;;;-0.70;99.90;;;;;;5061921;28;20174;-86
2023/03/02 06:46:26;;;;;;;11.50;8.13;;;-0.70;99.90;;;;;;5042614;28;20171;-85
2023/03/02 06:48:52;;;;;;;14.03;8.07;;;-0.70;99.90;;;;;;5044557;28;20258;-85
2023/03/02 06:51:17;;;;;;;14.67;8.17;;;-0.70;99.90;;;;;;5061219;28;20712;-82
2023/03/02 06:53:43;;;;;;;12.93;8.17;;;-0.80;99.90;;;;;;5043467;28;20200;-83
2023/03/02 06:56:09;;;;;;;12.80;7.80;;;-0.90;99.90;;;;;;5042358;28;20222;-83
2023/03/02 06:58:35;;;;;;;12.67;7.53;;;-0.90;99.90;;;;;;5060986;28;20591;-84
2023/03/02 07:01:01;;;;;;;10.77;7.43;;;-0.80;99.90;;;;;;5060897;28;20254;-83
2023/03/02 07:03:27;;;;;;;12.17;7.70;;;-0.80;99.90;;;;;;5061042;28;20190;-84
2023/03/02 07:05:52;;;;;;;12.93;7.60;;;-0.70;99.90;;;;;;5060123;28;20180;-80
2023/03/02 07:08:18;;;;;;;11.13;7.23;;;-0.60;99.90;;;;;;5059921;28;20197;-82
2023/03/02 07:10:43;;;;;;;11.00;7.37;;;-0.60;99.90;;;;;;5060693;28;20177;-83
2023/03/02 07:13:09;;;;;;;11.40;7.73;;;-0.60;99.90;;;;;;5044604;28;20203;-84
2023/03/02 07:15:37;;;;;;;11.57;7.80;;;-0.50;99.90;;;;;;5044341;28;20176;-83
2023/03/02 07:18:02;;;;;;;13.83;7.77;;;-0.50;99.90;;;;;;5043028;28;20268;-82
2023/03/02 07:20:29;;;;;;;13.43;7.80;;;-0.40;99.90;;;;;;5043932;28;20176;-83
2023/03/02 07:22:55;;;;;;;14.60;8.40;;;-0.40;99.90;;;;;;5043750;28;20278;-82
2023/03/02 07:25:21;;;;;;;15.63;7.97;;;-0.40;99.90;;;;;;5044705;28;20622;-83
2023/03/02 07:27:46;;;;;;;10.83;7.50;;;-0.40;99.90;;;;;;5065156;28;20200;-83
2023/03/02 07:30:13;;;;;;;12.60;7.97;;;-0.30;99.90;;;;;;5065582;28;20189;-83
2023/03/02 07:32:39;;;;;;;13.37;7.33;;;-0.20;99.90;;;;;;5065626;28;20210;-85
2023/03/02 07:35:05;;;;;;;12.33;7.83;;;-0.20;99.90;;;;;;5047072;28;20184;-84
2023/03/02 07:37:30;;;;;;;12.53;7.93;;;-0.10;99.90;;;;;;5066246;28;20196;-83
2023/03/02 07:39:56;;;;;;;14.93;9.00;;;0.00;99.90;;;;;;5048364;28;20183;-83
2023/03/02 07:42:22;;;;;;;13.20;8.07;;;0.00;99.90;;;;;;5046007;28;20175;-83
2023/03/02 07:44:47;;;;;;;13.80;8.23;;;0.10;99.90;;;;;;5044910;28;20172;-84
2023/03/02 07:47:13;;;;;;;11.67;7.80;;;0.20;99.90;;;;;;5043727;28;20222;-83
2023/03/02 07:49:38;;;;;;;13.07;7.50;;;0.30;99.90;;;;;;5041852;28;20187;-83
2023/03/02 07:52:04;;;;;;;14.50;8.20;;;0.30;99.90;;;;;;5061620;28;20338;-82
2023/03/02 07:54:30;;;;;;;12.77;8.17;;;0.30;99.90;;;;;;5062511;28;20172;-83
2023/03/02 07:56:57;;;;;;;13.77;8.60;;;0.40;99.90;;;;;;5061743;28;20204;-84
2023/03/02 07:59:23;;;;;;;12.77;7.93;;;0.50;99.90;;;;;;5061958;28;20175;-83
2023/03/02 08:01:49;;;;;;;13.10;7.93;;;0.60;99.90;;;;;;5061833;28;20176;-83
2023/03/02 08:04:15;;;;;;;16.70;8.10;;;0.70;99.90;;;;;;5044440;28;20585;-83
2023/03/02 08:06:40;;;;;;;11.03;7.70;;;0.80;99.90;;;;;;5044488;28;20173;-83
2023/03/02 08:09:06;;;;;;;13.27;8.07;;;0.90;99.90;;;;;;5062214;28;20260;-84
2023/03/02 08:11:31;;;;;;;15.30;8.03;;;1.00;99.90;;;;;;5044480;28;20177;-83
2023/03/02 08:14:01;;;;;;;11.67;7.70;;;1.10;99.90;;;;;;5044655;28;20236;-83
2023/03/02 08:16:27;;;;;;;14.10;8.37;;;1.20;99.90;;;;;;5062729;28;20212;-83
2023/03/02 08:18:53;;;;;;;14.80;8.50;;;1.30;99.90;;;;;;5044457;28;20212;-84
2023/03/02 08:21:21;;;;;;;16.73;8.57;;;1.30;99.90;;;;;;5044799;28;20203;-83
2023/03/02 08:23:48;;;;;;;14.20;8.07;;;1.40;99.90;;;;;;5044405;28;20220;-83
2023/03/02 08:26:18;;;;;;;14.03;8.13;;;1.60;99.90;;;;;;5046371;28;20177;-84
2023/03/02 08:28:44;;;;;;;14.10;9.03;;;1.60;99.90;;;;;;5041742;28;20202;-82
2023/03/02 08:31:10;;;;;;;13.47;8.17;;;1.80;99.90;;;;;;5054198;28;20218;-82
2023/03/02 08:33:36;;;;;;;16.70;8.50;;;1.90;99.90;;;;;;5054196;28;20201;-82
2023/03/02 08:36:10;;;;;;;11.53;8.00;;;2.00;99.90;;;;;;5036829;28;20200;-82
2023/03/02 08:38:35;;;;;;;13.93;8.07;;;2.10;99.90;;;;;;5036468;28;20280;-83
2023/03/02 08:41:06;;;;;;;12.00;8.13;;;2.20;99.90;;;;;;5036578;28;20662;-83
2023/03/02 08:43:32;;;;;;;12.30;8.53;;;2.40;99.90;;;;;;5037192;28;20184;-83
2023/03/02 08:45:58;;;;;;;13.13;8.47;;;2.50;99.90;;;;;;5036906;28;20261;-83
2023/03/02 08:48:25;;;;;;;15.63;8.83;;;2.60;99.90;;;;;;5090714;22;20228;-82
2023/03/02 08:51:13;;;;;;;12.97;8.17;;;2.80;99.90;;;;;;5073371;28;20169;-82
2023/03/02 08:53:41;;;;;;;15.87;9.00;;;2.90;99.90;;;;;;5073380;28;20204;-83
2023/03/02 08:56:24;;;;;;;15.10;8.60;;;3.00;99.90;;;;;;5055888;28;20233;-83
2023/03/02 08:58:50;;;;;;;13.83;8.23;;;3.20;99.90;;;;;;5055630;28;20205;-83
2023/03/02 09:01:21;;;;;;;13.37;9.23;;;3.30;98.40;;;;;;5073332;28;20231;-86
2023/03/02 09:03:47;;;;;;;13.97;8.60;;;3.50;98.50;;;;;;5073691;28;20173;-83
2023/03/02 09:06:13;;;;;;;14.00;8.60;;;3.50;96.70;;;;;;5073542;28;20163;-83
2023/03/02 09:08:39;;;;;;;14.33;8.67;;;3.60;95.20;;;;;;5055650;28;20242;-83
2023/03/02 09:11:05;;;;;;;15.63;8.73;;;3.70;95.80;;;;;;5073618;28;20177;-83
2023/03/02 09:13:31;;;;;;;14.20;8.93;;;3.90;95.70;;;;;;5073310;28;20213;-84
2023/03/02 09:15:56;;;;;;;16.50;8.87;;;4.00;96.00;;;;;;5073129;28;20171;-84
2023/03/02 09:18:22;;;;;;;13.40;8.60;;;4.10;94.10;;;;;;5055390;28;20242;-83
2023/03/02 09:20:52;;;;;;;16.73;8.90;;;4.20;93.70;;;;;;5073005;28;20540;-84
2023/03/02 09:23:18;;;;;;;13.37;8.37;;;4.40;92.70;;;;;;5073410;28;20202;-84
2023/03/02 09:25:46;;;;;;;16.90;8.60;;;4.40;93.30;;;;;;5073231;28;20668;-84
2023/03/02 09:28:12;;;;;;;15.60;8.77;;;4.50;92.60;;;;;;5055029;28;20282;-84
2023/03/02 09:30:37;;;;;;;14.77;8.80;;;4.70;90.90;;;;;;5055185;28;20243;-86
2023/03/02 09:33:03;;;;;;;13.93;8.90;;;4.80;91.00;;;;;;5055022;28;20229;-84
2023/03/02 09:35:28;;;;;;;12.53;8.20;;;5.00;88.20;;;;;;5073060;28;20172;-84
2023/03/02 09:37:54;;;;;;;13.83;8.23;;;5.10;87.90;;;;;;5054948;28;20189;-83
2023/03/02 09:40:23;;;;;;;15.87;9.07;;;5.20;87.90;;;;;;5054941;28;20187;-83
2023/03/02 09:43:10;;;;;;;14.83;8.67;;;5.30;82.90;;;;;;5072849;28;20183;-84
2023/03/02 09:45:53;;;;;;;13.07;8.63;;;5.40;84.80;;;;;;5054668;28;20176;-83
2023/03/02 09:48:25;;;;;;;13.20;8.60;;;5.50;82.40;;;;;;5054572;28;20223;-83
2023/03/02 09:51:21;;;;;;;12.33;8.07;;;5.60;78.80;;;;;;5054611;28;20539;-83
2023/03/02 09:54:08;;;;;;;14.03;8.77;;;5.70;79.00;;;;;;5054610;28;20208;-82
2023/03/02 09:56:38;;;;;;;13.90;8.60;;;5.70;78.50;;;;;;5072439;28;20177;-83
2023/03/02 09:59:12;;;;;;;14.27;8.83;;;5.90;79.30;;;;;;5054536;28;20200;-83
2023/03/02 10:01:43;;;;;;;15.30;9.00;;;6.00;74.10;;;;;;5072392;28;20200;-82
2023/03/02 10:04:21;;;;;;;14.83;8.97;;;6.10;68.40;;;;;;5072558;28;20180;-83
2023/03/02 10:06:53;;;;;;;13.80;8.60;;;6.30;73.10;;;;;;5072327;28;20639;-82
2023/03/02 10:09:19;;;;;;;13.23;9.07;;;6.40;68.40;;;;;;5054328;28;20667;-83
2023/03/02 10:12:14;;;;;;;12.73;8.47;;;6.40;65.80;;;;;;5053969;28;20176;-82
2023/03/02 10:14:56;;;;;;;12.77;8.47;;;6.40;64.20;;;;;;5054537;28;20165;-84
2023/03/02 10:17:51;;;;;;;13.80;8.80;;;6.60;65.90;;;;;;5072204;28;20211;-83
2023/03/02 10:20:24;;;;;;;13.33;8.27;;;6.70;61.00;;;;;;5072078;28;20170;-82
2023/03/02 10:22:57;;;;;;;12.53;8.43;;;6.90;57.90;;;;;;5054717;28;20188;-82
2023/03/02 10:25:42;;;;;;;15.27;8.63;;;7.00;59.70;;;;;;5072768;28;20174;-81
2023/03/02 10:28:18;;;;;;;12.53;7.97;;;7.20;55.20;;;;;;5043641;28;20209;-83
2023/03/02 10:30:44;;;;;;;12.50;7.93;;;7.40;56.00;;;;;;5047224;28;20185;-82
2023/03/02 10:33:16;;;;;;;13.00;8.50;;;7.50;54.10;;;;;;5072281;28;20227;-85
2023/03/02 10:35:49;;;;;;;11.23;7.70;;;7.70;56.10;;;;;;5054503;28;20168;-82
2023/03/02 10:38:17;;;;;;;12.10;7.77;;;7.80;48.90;;;;;;5063618;28;20275;-84
2023/03/02 10:40:46;;;;;;;14.40;8.07;;;7.80;49.80;;;;;;5071975;28;20254;-80
2023/03/02 10:43:26;;;;;;;13.47;8.30;;;8.00;48.40;;;;;;5064567;28;20171;-82
2023/03/02 10:46:18;;;;;;;13.07;8.77;;;8.10;47.20;;;;;;5054332;28;20554;-83
2023/03/02 10:48:57;;;;;;;12.00;8.33;;;8.40;48.30;;;;;;5067761;28;20216;-85
2023/03/02 10:51:27;;;;;;;12.93;8.30;;;8.50;43.20;;;;;;5065132;28;20172;-86
2023/03/02 10:54:08;;;;;;;11.83;7.83;;;8.50;43.40;;;;;;5072008;28;20203;-82
2023/03/02 10:56:34;;;;;;;12.10;7.57;;;8.50;46.40;;;;;;5054795;28;20180;-82
2023/03/02 10:59:02;;;;;;;11.63;8.17;;;8.60;46.00;;;;;;5054460;28;20193;-85
2023/03/02 11:01:29;;;;;;;13.57;8.03;;;8.70;44.20;;;;;;5074502;28;20165;-81
2023/03/02 11:04:00;;;;;;;14.20;8.70;;;8.70;48.30;;;;;;5057289;28;20181;-81
2023/03/02 11:06:27;;;;;;;12.10;8.30;;;8.80;47.60;;;;;;5076004;28;20265;-82
2023/03/02 11:09:06;;;;;;;12.33;8.70;;;9.10;47.20;;;;;;5058674;28;20197;-81
2023/03/02 11:11:32;;;;;;;13.83;9.00;;;9.10;46.80;;;;;;5076491;28;20177;-82
2023/03/02 11:14:15;;;;;;;12.17;7.97;;;9.10;42.80;;;;;;5076330;28;20212;-81
2023/03/02 11:16:41;;;;;;;11.20;7.70;;;9.20;45.10;;;;;;5058722;28;20200;-82
2023/03/02 11:19:22;;;;;;;13.47;8.77;;;9.50;43.20;;;;;;5073984;28;20221;-85
2023/03/02 11:21:59;;;;;;;15.40;8.10;;;9.50;42.20;;;;;;5052236;28;20182;-86
2023/03/02 11:24:37;;;;;;;12.53;7.90;;;9.70;60.20;;;;;;5053313;28;20719;-84
2023/03/02 11:27:06;;;;;;;14.63;9.07;;;10.20;52.40;;;;;;5072337;28;20243;-84
2023/03/02 11:30:10;;;;;;;16.87;9.53;;;10.00;40.30;;;;;;5058744;28;20170;-83
2023/03/02 11:32:48;;;;;;;13.17;9.30;;;9.90;43.40;;;;;;5004181;28;20205;-81
2023/03/02 11:35:35;;;;;;;14.37;9.43;;;10.00;37.80;;;;;;5076324;28;20239;-83
2023/03/02 11:38:25;;;;;;;13.53;9.50;;;10.10;38.10;;;;;;5057563;28;20590;-81
2023/03/02 11:41:16;;;;;;;14.67;9.57;;;10.30;40.20;;;;;;5030011;28;20187;-83
2023/03/02 11:43:41;;;;;;;14.13;9.60;;;10.40;37.90;;;;;;5057638;28;20174;-83
2023/03/02 11:46:17;;;;;;;14.03;9.27;;;10.40;35.90;;;;;;5075327;28;20553;-83
2023/03/02 11:48:48;;;;;;;12.23;9.40;;;10.10;37.30;;;;;;5075274;28;20246;-84
2023/03/02 11:51:31;;;;;;;13.50;9.50;;;9.60;38.80;;;;;;5075463;28;20190;-83
2023/03/02 11:53:59;;;;;;;13.47;9.50;;;9.60;40.30;;;;;;5057557;28;20195;-82
2023/03/02 11:56:30;;;;;;;15.03;10.00;;;9.40;41.30;;;;;;5075418;28;20168;-83
2023/03/02 11:58:59;;;;;;;15.60;10.23;;;9.50;42.40;;;;;;5057630;28;20213;-84
2023/03/02 12:01:27;;;;;;;14.47;10.07;;;9.60;43.60;;;;;;5057440;28;20169;-82
2023/03/02 12:03:53;;;;;;;15.00;10.27;;;9.60;42.50;;;;;;5057474;28;20225;-83
2023/03/02 12:06:23;;;;;;;14.93;10.20;;;9.70;42.50;;;;;;5057122;28;20200;-83
2023/03/02 12:08:53;;;;;;;16.03;10.30;;;9.70;41.70;;;;;;5075067;28;20735;-83
2023/03/02 12:11:19;;;;;;;16.20;10.70;;;9.80;44.10;;;;;;5057163;28;20184;-83
2023/03/02 12:13:53;;;;;;;15.30;10.00;;;9.80;38.70;;;;;;5057304;28;20348;-83
2023/03/02 12:16:21;;;;;;;15.43;10.40;;;9.90;38.80;;;;;;5068611;28;20172;-83
2023/03/02 12:18:49;;;;;;;15.03;10.87;;;10.10;45.10;;;;;;5056966;28;20289;-82
2023/03/02 12:21:17;;;;;;;17.23;10.97;;;10.10;37.10;;;;;;5056986;28;20557;-83
2023/03/02 12:23:48;;;;;;;15.30;10.70;;;10.10;39.50;;;;;;5074801;28;20298;-83
2023/03/02 12:26:20;;;;;;;16.20;10.40;;;10.20;36.30;;;;;;5074910;28;20180;-83
2023/03/02 12:29:09;;;;;;;15.20;10.50;;;10.40;36.30;;;;;;5056593;28;20670;-83
2023/03/02 12:31:44;;;;;;;16.03;11.03;;;10.80;39.90;;;;;;5068926;28;20209;-83
2023/03/02 12:34:24;;;;;;;14.47;10.27;;;10.90;36.30;;;;;;5074227;28;20277;-83
2023/03/02 12:36:58;;;;;;;16.37;10.30;;;10.90;33.00;;;;;;5056531;28;20168;-83
2023/03/02 12:39:48;;;;;;;14.10;10.00;;;11.00;35.20;;;;;;5056448;28;20196;-83
2023/03/02 12:42:51;;;;;;;13.90;10.17;;;11.40;35.70;;;;;;5074626;28;20172;-83
2023/03/02 12:45:26;;;;;;;14.57;10.47;;;11.80;33.30;;;;;;5074574;28;20200;-83
2023/03/02 12:48:01;;;;;;;14.13;10.00;;;12.10;31.60;;;;;;5074062;28;20701;-83
2023/03/02 12:50:30;;;;;;;14.47;10.13;;;12.20;30.10;;;;;;5056213;28;20169;-83
2023/03/02 12:52:57;;;;;;;15.97;10.90;;;12.40;28.60;;;;;;5056066;28;20224;-84